createdAt,value
2022-08-19T00:02:17.180Z,100770.66
2022-08-19T00:04:59.124Z,100766.94
2022-08-19T00:07:39.285Z,100770.66
2022-08-19T00:10:21.205Z,100770.66
2022-08-19T00:13:01.295Z,100762.75
2022-08-19T00:15:45.630Z,100759.47
2022-08-19T00:18:25.786Z,100765.69
2022-08-19T00:21:10.550Z,100780.19
2022-08-19T00:23:50.074Z,100778.53
2022-08-19T00:26:31.947Z,100776.03
2022-08-19T00:29:15.735Z,100767.75
2022-08-19T00:31:57.559Z,100771.91
2022-08-19T00:34:37.349Z,100768.59
2022-08-19T00:37:17.172Z,100757.97
2022-08-19T00:39:57.673Z,100754.47
2022-08-19T00:42:37.095Z,100742.84
2022-08-19T00:45:19.323Z,100739.53
2022-08-19T00:47:59.713Z,100728.13
2022-08-19T00:50:51.442Z,100723.16
2022-08-19T00:53:34.945Z,100725.88
2022-08-19T00:56:18.071Z,100719.47
2022-08-19T00:59:00.560Z,100711.16
2022-08-19T01:01:43.299Z,100715.50
2022-08-19T01:04:23.997Z,100715.09
2022-08-19T01:07:06.921Z,100712.84
2022-08-19T01:09:49.214Z,100706.88
2022-08-19T01:12:32.591Z,100703.94
2022-08-19T01:15:20.845Z,100704.38
2022-08-19T01:18:08.517Z,100708.72
2022-08-19T01:20:48.658Z,100701.88
2022-08-19T01:23:43.402Z,100695.88
2022-08-19T01:26:25.691Z,100695.25
2022-08-19T01:29:05.503Z,100689.66
2022-08-19T01:31:57.726Z,100683.00
2022-08-19T01:34:38.464Z,100682.56
2022-08-19T01:37:27.251Z,100687.34
2022-08-19T01:40:09.700Z,100698.75
2022-08-19T01:42:49.955Z,100690.25
2022-08-19T01:45:32.685Z,100695.63
2022-08-19T01:48:12.061Z,100684.66
2022-08-19T01:50:51.800Z,100675.94
2022-08-19T01:53:33.712Z,100673.69
2022-08-19T01:56:14.566Z,100679.91
2022-08-19T01:58:57.891Z,100679.28
2022-08-19T02:01:37.543Z,100675.56
2022-08-19T02:04:19.400Z,100675.34
2022-08-19T02:07:00.768Z,100669.94
2022-08-19T02:09:39.121Z,100668.28
2022-08-19T02:12:19.741Z,100662.47
2022-08-19T02:15:00.666Z,100667.44
2022-08-19T02:17:41.256Z,100673.88
2022-08-19T02:20:20.866Z,100675.34
2022-08-19T02:23:02.189Z,100668.69
2022-08-19T02:25:42.776Z,100665.56
2022-08-19T02:28:25.503Z,100668.25
2022-08-19T02:31:11.374Z,100667.03
2022-08-19T02:33:53.466Z,100666.22
2022-08-19T02:36:37.307Z,100681.34
2022-08-19T02:39:22.042Z,100669.31
2022-08-19T02:42:03.083Z,100668.91
2022-08-19T02:44:43.065Z,100674.09
2022-08-19T02:47:23.078Z,100686.13
2022-08-19T02:50:06.224Z,100677.00
2022-08-19T02:52:46.288Z,100686.97
2022-08-19T02:55:25.484Z,100679.09
2022-08-19T02:58:08.360Z,100679.28
2022-08-19T03:00:54.800Z,100671.19
2022-08-19T03:03:36.531Z,100678.66
2022-08-19T03:06:16.663Z,100669.97
2022-08-19T03:08:57.633Z,100669.97
2022-08-19T03:11:39.704Z,100666.66
2022-08-19T03:14:22.144Z,100674.13
2022-08-19T03:17:00.682Z,100674.97
2022-08-19T03:19:41.717Z,100665.03
2022-08-19T03:22:33.772Z,100669.56
2022-08-19T03:25:14.668Z,100669.97
2022-08-19T03:27:54.236Z,100678.69
2022-08-19T03:30:34.031Z,100684.50
2022-08-19T03:33:18.206Z,100684.91
2022-08-19T03:36:11.396Z,100688.63
2022-08-19T03:38:56.389Z,100690.69
2022-08-19T03:42:32.927Z,100687.81
2022-08-19T03:44:56.357Z,100685.53
2022-08-19T03:47:35.852Z,100691.53
2022-08-19T03:50:18.158Z,100696.91
2022-08-19T03:53:17.809Z,100690.91
2022-08-19T03:55:58.911Z,100691.53
2022-08-19T03:58:40.032Z,100697.34
2022-08-19T04:01:35.226Z,100693.59
2022-08-19T04:04:29.817Z,100686.56
2022-08-19T04:07:16.606Z,100694.00
2022-08-19T04:10:10.634Z,100694.03
2022-08-19T04:12:50.391Z,100699.63
2022-08-19T04:15:34.458Z,100706.03
2022-08-19T04:18:16.893Z,100705.38
2022-08-19T04:20:56.240Z,100714.28
2022-08-19T04:23:37.860Z,100719.50
2022-08-19T04:26:27.146Z,100714.72
2022-08-19T04:29:13.018Z,100709.31
2022-08-19T04:31:51.918Z,100708.09
2022-08-19T04:34:33.425Z,100703.53
2022-08-19T04:37:13.494Z,100704.97
2022-08-19T04:40:30.709Z,100696.69
2022-08-19T04:43:13.115Z,100694.41
2022-08-19T04:45:56.850Z,100696.06
2022-08-19T04:48:49.473Z,100697.09
2022-08-19T04:51:32.040Z,100700.63
2022-08-19T04:54:13.122Z,100704.56
2022-08-19T04:56:54.669Z,100704.34
2022-08-19T04:59:35.360Z,100705.97
2022-08-19T05:02:14.941Z,100707.00
2022-08-19T05:04:59.412Z,100705.97
2022-08-19T05:07:42.002Z,100709.31
2022-08-19T05:10:22.455Z,100712.63
2022-08-19T05:13:02.298Z,100718.44
2022-08-19T05:15:44.105Z,100725.47
2022-08-19T05:18:37.372Z,100725.88
2022-08-19T05:21:36.318Z,100734.59
2022-08-19T05:24:17.089Z,100727.13
2022-08-19T05:26:59.011Z,100728.38
2022-08-19T05:29:41.444Z,100723.03
2022-08-19T05:32:22.535Z,100721.97
2022-08-19T05:35:02.312Z,100715.53
2022-08-19T05:37:59.016Z,100715.09
2022-08-19T05:40:39.376Z,100715.13
2022-08-19T05:43:19.887Z,100713.47
2022-08-19T05:46:27.813Z,100707.91
2022-08-19T05:49:08.804Z,100704.97
2022-08-19T05:51:48.150Z,100699.81
2022-08-19T05:54:27.997Z,100702.31
2022-08-19T05:57:08.457Z,100695.66
2022-08-19T06:00:13.293Z,100700.25
2022-08-19T06:02:53.129Z,100703.97
2022-08-19T06:05:33.092Z,100709.34
2022-08-19T06:08:34.405Z,100711.84
2022-08-19T06:11:17.395Z,100714.34
2022-08-19T06:13:59.724Z,100719.31
2022-08-19T06:16:42.637Z,100726.13
2022-08-19T06:19:25.159Z,100733.16
2022-08-19T06:22:07.494Z,100730.47
2022-08-19T06:24:46.952Z,100734.63
2022-08-19T06:27:32.008Z,100729.22
2022-08-19T06:30:14.390Z,100728.41
2022-08-19T06:32:54.076Z,100734.44
2022-08-19T06:35:32.752Z,100747.69
2022-08-19T06:38:12.028Z,100737.75
2022-08-19T06:40:51.818Z,100743.53
2022-08-19T06:43:31.648Z,100741.25
2022-08-19T06:46:16.052Z,100749.56
2022-08-19T06:48:55.740Z,100754.94
2022-08-19T06:51:35.952Z,100759.72
2022-08-19T06:54:24.079Z,100766.72
2022-08-19T06:57:16.011Z,100758.84
2022-08-19T06:59:57.442Z,100759.25
2022-08-19T07:02:38.452Z,100763.97
2022-08-19T07:05:19.092Z,100765.38
2022-08-19T07:08:04.829Z,100774.25
2022-08-19T07:10:48.903Z,100781.91
2022-08-19T07:13:29.532Z,100794.47
2022-08-19T07:16:10.840Z,100783.59
2022-08-19T07:18:54.639Z,100788.50
2022-08-19T07:21:35.564Z,100789.69
2022-08-19T07:24:19.027Z,100799.97
2022-08-19T07:27:02.613Z,100801.97
2022-08-19T07:29:42.982Z,100809.84
2022-08-19T07:32:24.422Z,100814.97
2022-08-19T07:35:07.060Z,100809.91
2022-08-19T07:37:47.095Z,100815.06
2022-08-19T07:40:26.924Z,100822.13
2022-08-19T07:43:07.344Z,100834.53
2022-08-19T07:45:50.030Z,100835.34
2022-08-19T07:48:30.012Z,100850.75
2022-08-19T07:51:11.240Z,100859.81
2022-08-19T07:53:53.864Z,100856.84
2022-08-19T07:56:35.719Z,100862.41
2022-08-19T07:59:14.073Z,100866.31
2022-08-19T08:01:53.516Z,100858.59
2022-08-19T08:04:51.185Z,100853.53
2022-08-19T08:07:48.566Z,100857.91
2022-08-19T08:10:27.930Z,100861.91
2022-08-19T08:13:10.181Z,100864.28
2022-08-19T08:15:52.235Z,100867.09
2022-08-19T08:18:56.131Z,100867.22
2022-08-19T08:21:49.879Z,100872.13
2022-08-19T08:24:31.571Z,100873.00
2022-08-19T08:27:12.359Z,100867.16
2022-08-19T08:29:52.044Z,100870.16
2022-08-19T08:32:31.786Z,100861.09
2022-08-19T08:35:14.927Z,100857.91
2022-08-19T08:37:55.608Z,100865.34
2022-08-19T08:40:46.242Z,100868.34
2022-08-19T08:43:32.521Z,100867.00
2022-08-19T08:46:16.255Z,100862.91
2022-08-19T08:49:22.485Z,100874.09
2022-08-19T08:52:07.855Z,100867.16
2022-08-19T08:55:03.178Z,100871.53
2022-08-19T08:58:07.085Z,100868.69
2022-08-19T09:00:49.426Z,100874.31
2022-08-19T09:03:32.004Z,100868.41
2022-08-19T09:06:16.959Z,100872.50
2022-08-19T09:09:04.212Z,100857.19
2022-08-19T09:11:58.811Z,100862.72
2022-08-19T09:14:50.125Z,100862.13
2022-08-19T09:17:36.375Z,100880.91
2022-08-19T09:20:22.105Z,100881.63
2022-08-19T09:23:01.477Z,100891.53
2022-08-19T09:25:41.742Z,100893.50
2022-08-19T09:28:22.498Z,100893.47
2022-08-19T09:31:07.335Z,100886.06
2022-08-19T09:33:47.283Z,100884.84
2022-08-19T09:36:34.687Z,100880.56
2022-08-19T09:39:16.369Z,100880.34
2022-08-19T09:41:56.145Z,100892.78
2022-08-19T09:44:39.963Z,100885.28
2022-08-19T09:47:22.588Z,100885.91
2022-08-19T09:50:03.557Z,100883.44
2022-08-19T09:52:55.185Z,100888.09
2022-08-19T09:55:37.654Z,100893.84
2022-08-19T09:58:19.302Z,100883.13
2022-08-19T10:01:06.902Z,100885.84
2022-08-19T10:03:51.612Z,100884.69
2022-08-19T10:06:44.062Z,100884.75
2022-08-19T10:09:34.389Z,100885.50
2022-08-19T10:12:16.289Z,100893.75
2022-08-19T10:14:59.628Z,100877.91
2022-08-19T10:17:39.251Z,100879.63
2022-08-19T10:20:21.240Z,100876.41
2022-08-19T10:23:03.880Z,100883.13
2022-08-19T10:26:01.513Z,100884.47
2022-08-19T10:28:42.642Z,100874.34
2022-08-19T10:32:01.161Z,100879.84
2022-08-19T10:34:29.296Z,100875.50
2022-08-19T10:37:11.679Z,100867.81
2022-08-19T10:39:54.337Z,100861.53
2022-08-19T10:42:36.243Z,100867.22
2022-08-19T10:45:15.500Z,100863.03
2022-08-19T10:47:55.739Z,100860.44
2022-08-19T10:50:52.529Z,100863.63
2022-08-19T10:53:32.773Z,100859.06
2022-08-19T10:56:31.303Z,100843.09
2022-08-19T10:59:14.659Z,100837.97
2022-08-19T11:01:54.649Z,100837.97
2022-08-19T11:04:37.467Z,100831.00
2022-08-19T11:07:17.885Z,100831.06
2022-08-19T11:09:58.605Z,100829.59
2022-08-19T11:12:40.863Z,100827.19
2022-08-19T11:15:40.622Z,100832.28
2022-08-19T11:18:20.435Z,100834.41
2022-08-19T11:21:09.336Z,100833.06
2022-08-19T11:23:51.743Z,100835.16
2022-08-19T11:26:34.271Z,100825.09
2022-08-19T11:29:14.856Z,100822.22
2022-08-19T11:31:56.173Z,100812.53
2022-08-19T11:34:37.673Z,100823.69
2022-08-19T11:37:39.057Z,100822.50
2022-08-19T11:40:19.090Z,100820.78
2022-08-19T11:43:00.878Z,100805.88
2022-08-19T11:45:40.185Z,100802.22
2022-08-19T11:48:22.792Z,100800.16
2022-08-19T11:51:07.323Z,100799.59
2022-08-19T11:54:06.972Z,100796.22
2022-08-19T11:56:49.986Z,100796.91
2022-08-19T11:59:30.159Z,100796.53
2022-08-19T12:02:11.662Z,100798.50
2022-08-19T12:04:51.463Z,100805.56
2022-08-19T12:07:38.943Z,100805.34
2022-08-19T12:10:42.449Z,100798.41
2022-08-19T12:13:35.985Z,100800.31
2022-08-19T12:16:20.159Z,100797.75
2022-08-19T12:19:04.400Z,100791.97
2022-08-19T12:21:44.031Z,100795.31
2022-08-19T12:24:25.359Z,100795.88
2022-08-19T12:27:05.520Z,100785.31
2022-08-19T12:29:53.069Z,100783.59
2022-08-19T12:32:33.617Z,100775.00
2022-08-19T12:35:14.235Z,100761.50
2022-08-19T12:37:57.115Z,100760.84
2022-08-19T12:40:35.847Z,100758.00
2022-08-19T12:43:16.512Z,100762.22
2022-08-19T12:45:56.788Z,100752.91
2022-08-19T12:48:35.796Z,100765.56
2022-08-19T12:51:16.973Z,100766.38
2022-08-19T12:53:58.442Z,100768.53
2022-08-19T12:56:39.462Z,100772.91
2022-08-19T12:59:19.036Z,100773.91
2022-08-19T13:01:58.861Z,100774.66
2022-08-19T13:04:41.527Z,100778.28
2022-08-19T13:07:20.260Z,100770.44
2022-08-19T13:10:00.004Z,100764.97
2022-08-19T13:12:41.943Z,100753.41
2022-08-19T13:15:25.226Z,100751.97
2022-08-19T13:18:05.779Z,100745.41
2022-08-19T13:20:52.516Z,100739.38
2022-08-19T13:23:35.329Z,100749.13
2022-08-19T13:26:14.245Z,100753.50
2022-08-19T13:29:31.255Z,100742.03
2022-08-19T13:32:28.689Z,100746.47
2022-08-19T13:35:16.094Z,100736.84
2022-08-19T13:37:56.344Z,100738.38
2022-08-19T13:40:37.387Z,100739.22
2022-08-19T13:43:23.836Z,100738.34
2022-08-19T13:46:11.331Z,100742.53
2022-08-19T13:48:50.269Z,100743.03
2022-08-19T13:51:28.618Z,100734.03
2022-08-19T13:54:10.865Z,100736.31
2022-08-19T13:56:51.136Z,100734.06
2022-08-19T13:59:34.369Z,100737.31
2022-08-19T14:02:27.358Z,100732.22
2022-08-19T14:05:11.131Z,100740.91
2022-08-19T14:07:52.825Z,100742.38
2022-08-19T14:10:53.421Z,100742.69
2022-08-19T14:13:35.017Z,100745.13
2022-08-19T14:16:15.744Z,100748.75
2022-08-19T14:19:08.710Z,100744.56
2022-08-19T14:22:09.937Z,100743.13
2022-08-19T14:24:51.128Z,100751.97
2022-08-19T14:27:31.614Z,100747.22
2022-08-19T14:30:14.829Z,100747.22
2022-08-19T14:32:55.042Z,100745.00
2022-08-19T14:35:59.716Z,100751.66
2022-08-19T14:39:01.674Z,100749.78
2022-08-19T14:41:43.620Z,100745.72
2022-08-19T14:44:43.073Z,100739.19
2022-08-19T14:47:24.883Z,100731.19
2022-08-19T14:50:07.386Z,100741.09
2022-08-19T14:52:49.626Z,100734.78
2022-08-19T14:55:29.582Z,100732.59
2022-08-19T14:58:29.281Z,100743.53
2022-08-19T15:01:10.491Z,100744.03
2022-08-19T15:04:09.625Z,100748.41
2022-08-19T15:07:22.206Z,100751.13
2022-08-19T15:10:09.059Z,100759.00
2022-08-19T15:12:51.562Z,100756.25
2022-08-19T15:15:54.864Z,100767.41
2022-08-19T15:18:33.497Z,100762.78
2022-08-19T15:21:26.882Z,100758.94
2022-08-19T15:24:07.520Z,100754.03
2022-08-19T15:26:48.180Z,100757.53
2022-08-19T15:29:28.141Z,100755.84
2022-08-19T15:32:08.328Z,100757.75
2022-08-19T15:34:49.557Z,100756.31
2022-08-19T15:37:28.962Z,100759.56
2022-08-19T15:40:10.320Z,100760.56
2022-08-19T15:42:50.392Z,100764.09
2022-08-19T15:45:32.672Z,100763.78
2022-08-19T15:48:13.009Z,100767.25
2022-08-19T15:50:52.796Z,100759.84
2022-08-19T15:53:33.261Z,100770.13
2022-08-19T15:56:15.824Z,100756.72
2022-08-19T15:59:12.936Z,100762.91
2022-08-19T16:02:10.585Z,100765.84
2022-08-19T16:05:13.243Z,100768.16
2022-08-19T16:07:53.146Z,100770.72
2022-08-19T16:10:36.503Z,100765.56
2022-08-19T16:13:16.931Z,100756.53
2022-08-19T16:15:57.180Z,100759.47
2022-08-19T16:18:38.229Z,100757.81
2022-08-19T16:21:17.928Z,100753.13
2022-08-19T16:23:57.720Z,100760.19
2022-08-19T16:26:37.563Z,100758.47
2022-08-19T16:29:33.367Z,100752.72
2022-08-19T16:32:14.862Z,100758.94
2022-08-19T16:34:57.551Z,100756.16
2022-08-19T16:37:39.558Z,100751.72
2022-08-19T16:40:21.071Z,100750.53
2022-08-19T16:43:12.839Z,100737.13
2022-08-19T16:45:54.483Z,100750.44
2022-08-19T16:48:34.958Z,100751.53
2022-08-19T16:51:15.476Z,100753.69
2022-08-19T16:53:55.584Z,100750.66
2022-08-19T16:56:36.287Z,100755.28
2022-08-19T16:59:18.110Z,100756.00
2022-08-19T17:01:58.876Z,100755.75
2022-08-19T17:04:40.988Z,100750.81
2022-08-19T17:07:21.582Z,100751.84
2022-08-19T17:10:02.201Z,100750.75
2022-08-19T17:12:42.828Z,100755.13
2022-08-19T17:15:22.843Z,100749.13
2022-08-19T17:18:07.769Z,100753.50
2022-08-19T17:20:47.735Z,100756.47
2022-08-19T17:23:42.999Z,100756.16
2022-08-19T17:26:25.251Z,100755.84
2022-08-19T17:29:06.295Z,100751.44
2022-08-19T17:31:45.626Z,100750.06
2022-08-19T17:34:25.604Z,100745.63
2022-08-19T17:37:05.299Z,100740.69
2022-08-19T17:39:46.965Z,100742.03
2022-08-19T17:42:26.510Z,100740.53
2022-08-19T17:45:11.318Z,100738.56
2022-08-19T17:47:54.093Z,100727.63
2022-08-19T17:50:36.569Z,100729.66
2022-08-19T17:53:18.083Z,100736.94
2022-08-19T17:56:00.096Z,100729.69
2022-08-19T17:58:40.453Z,100732.31
2022-08-19T18:01:22.953Z,100734.41
2022-08-19T18:04:10.696Z,100737.84
2022-08-19T18:06:53.106Z,100739.09
2022-08-19T18:09:41.717Z,100738.44
2022-08-19T18:12:27.369Z,100733.91
2022-08-19T18:15:18.341Z,100740.31
2022-08-19T18:17:59.525Z,100751.47
2022-08-19T18:20:40.972Z,100741.69
2022-08-19T18:23:45.504Z,100745.59
2022-08-19T18:26:23.104Z,100735.97
2022-08-19T18:29:03.346Z,100736.13
2022-08-19T18:31:43.521Z,100737.06
2022-08-19T18:34:27.003Z,100742.56
2022-08-19T18:37:08.563Z,100746.47
2022-08-19T18:40:07.499Z,100749.94
2022-08-19T18:43:18.200Z,100756.16
2022-08-19T18:46:16.660Z,100751.63
2022-08-19T18:49:12.222Z,100758.47
2022-08-19T18:52:03.696Z,100767.47
2022-08-19T18:54:46.862Z,100765.56
2022-08-19T18:57:27.163Z,100757.81
2022-08-19T19:00:09.869Z,100762.84
2022-08-19T19:03:24.615Z,100766.47
2022-08-19T19:06:07.212Z,100764.13
2022-08-19T19:09:08.662Z,100767.03
2022-08-19T19:11:51.346Z,100760.41
2022-08-19T19:14:48.591Z,100769.72
2022-08-19T19:17:30.220Z,100780.88
2022-08-19T19:20:36.356Z,100782.28
2022-08-19T19:23:17.115Z,100770.28
2022-08-19T19:26:18.699Z,100778.16
2022-08-19T19:28:59.756Z,100780.94
2022-08-19T19:31:42.800Z,100788.09
2022-08-19T19:34:29.677Z,100794.66
2022-08-19T19:37:09.802Z,100793.91
2022-08-19T19:40:00.377Z,100795.28
2022-08-19T19:42:41.672Z,100794.97
2022-08-19T19:45:24.773Z,100810.47
2022-08-19T19:48:06.228Z,100802.59
2022-08-19T19:51:07.192Z,100810.78
2022-08-19T19:53:57.993Z,100804.81
2022-08-19T19:57:01.512Z,100822.41
2022-08-19T19:59:44.839Z,100814.38
2022-08-19T20:02:28.760Z,100827.94
2022-08-19T20:05:09.860Z,100831.53
2022-08-19T20:08:11.661Z,100830.53
2022-08-19T20:11:07.926Z,100836.81
2022-08-19T20:14:09.810Z,100836.66
2022-08-19T20:17:10.640Z,100831.72
2022-08-19T20:20:23.749Z,100825.09
2022-08-19T20:23:25.762Z,100824.94
2022-08-19T20:26:06.568Z,100826.41
2022-08-19T20:29:05.297Z,100831.81
2022-08-19T20:31:57.223Z,100834.97
2022-08-19T20:34:39.288Z,100831.88
2022-08-19T20:37:21.237Z,100837.50
2022-08-19T20:40:01.436Z,100841.25
2022-08-19T20:42:42.914Z,100839.81
2022-08-19T20:45:33.183Z,100847.75
2022-08-19T20:48:16.616Z,100841.34
2022-08-19T20:50:57.959Z,100843.44
2022-08-19T20:53:40.396Z,100850.09
2022-08-19T20:56:21.387Z,100849.25
2022-08-19T20:59:04.482Z,100850.13
2022-08-19T21:02:05.822Z,100852.00
2022-08-19T21:04:45.892Z,100846.81
2022-08-19T21:07:26.885Z,100850.16
2022-08-19T21:10:21.147Z,100854.31
2022-08-19T21:13:03.694Z,100856.63
2022-08-19T21:16:09.193Z,100847.28
2022-08-19T21:18:50.966Z,100853.56
2022-08-19T21:21:31.464Z,100851.06
2022-08-19T21:24:13.153Z,100849.41
2022-08-19T21:26:52.523Z,100847.94
2022-08-19T21:29:36.640Z,100851.91
2022-08-19T21:32:29.196Z,100851.47
2022-08-19T21:35:10.027Z,100848.97
2022-08-19T21:38:01.273Z,100850.25
2022-08-19T21:40:51.941Z,100839.03
2022-08-19T21:43:33.705Z,100851.06
2022-08-19T21:46:26.195Z,100848.19
2022-08-19T21:49:08.909Z,100847.75
2022-08-19T21:51:48.319Z,100851.06
2022-08-19T21:54:37.509Z,100853.59
2022-08-19T21:57:21.129Z,100848.59
2022-08-19T22:00:01.348Z,100849.88
2022-08-19T22:02:45.234Z,100853.19
2022-08-19T22:05:26.490Z,100860.88
2022-08-19T22:08:06.580Z,100852.97
2022-08-19T22:10:46.600Z,100856.09
2022-08-19T22:13:39.968Z,100860.88
2022-08-19T22:16:21.508Z,100859.44
2022-08-19T22:19:05.974Z,100865.25
2022-08-19T22:21:47.172Z,100857.59
2022-08-19T22:24:26.560Z,100863.16
2022-08-19T22:27:06.768Z,100868.56
2022-08-19T22:30:02.043Z,100862.75
2022-08-19T22:32:47.208Z,100856.53
2022-08-19T22:35:29.597Z,100846.78
2022-08-19T22:38:11.901Z,100851.56
2022-08-19T22:40:52.812Z,100846.16
2022-08-19T22:43:37.333Z,100851.56
2022-08-19T22:46:17.909Z,100847.81
2022-08-19T22:49:01.362Z,100851.78
2022-08-19T22:51:59.645Z,100845.75
2022-08-19T22:54:40.143Z,100842.25
2022-08-19T22:57:21.863Z,100848.69
2022-08-19T23:00:02.314Z,100848.06
2022-08-19T23:02:51.334Z,100850.53
2022-08-19T23:05:35.108Z,100846.78
2022-08-19T23:08:18.023Z,100837.25
2022-08-19T23:10:59.548Z,100841.63
2022-08-19T23:13:51.588Z,100849.94
2022-08-19T23:16:35.618Z,100850.97
2022-08-19T23:19:16.703Z,100842.03
2022-08-19T23:21:56.859Z,100841.41
2022-08-19T23:24:36.308Z,100837.88
2022-08-19T23:27:33.854Z,100834.53
2022-08-19T23:30:28.200Z,100827.91
2022-08-19T23:33:26.344Z,100829.97
2022-08-19T23:36:27.014Z,100833.72
2022-08-19T23:39:06.439Z,100834.75
2022-08-19T23:41:46.149Z,100842.41
2022-08-19T23:44:28.060Z,100827.47
2022-08-19T23:47:10.911Z,100832.22
2022-08-19T23:49:49.482Z,100832.44
2022-08-19T23:52:46.718Z,100822.91
2022-08-19T23:55:33.145Z,100827.88
2022-08-19T23:58:14.007Z,100830.16
